sensor_id;sensor_type;location;lat;lon;timestamp;P1;durP1;ratioP1;P2;durP2;ratioP2
51578;SDS011;47998;53.242;6.386;2022-12-17T00:02:03;491.50;;;55.67;;
51578;SDS011;47998;53.242;6.386;2022-12-17T00:04:58;486.33;;;58.07;;
51578;SDS011;47998;53.242;6.386;2022-12-17T00:07:42;534.40;;;63.03;;
51578;SDS011;47998;53.242;6.386;2022-12-17T00:10:27;485.40;;;58.00;;
51578;SDS011;47998;53.242;6.386;2022-12-17T00:13:20;447.87;;;51.17;;
51578;SDS011;47998;53.242;6.386;2022-12-17T00:19:03;466.97;;;59.77;;
51578;SDS011;47998;53.242;6.386;2022-12-17T00:21:47;357.83;;;48.07;;
51578;SDS011;47998;53.242;6.386;2022-12-17T00:24:32;379.57;;;52.97;;
51578;SDS011;47998;53.242;6.386;2022-12-17T00:27:16;255.80;;;37.40;;
51578;SDS011;47998;53.242;6.386;2022-12-17T00:30:00;395.80;;;54.20;;
51578;SDS011;47998;53.242;6.386;2022-12-17T00:32:44;480.27;;;68.07;;
51578;SDS011;47998;53.242;6.386;2022-12-17T00:35:28;517.83;;;72.00;;
51578;SDS011;47998;53.242;6.386;2022-12-17T00:38:14;503.43;;;70.90;;
51578;SDS011;47998;53.242;6.386;2022-12-17T00:40:59;462.10;;;63.63;;
51578;SDS011;47998;53.242;6.386;2022-12-17T00:43:45;473.13;;;67.73;;
51578;SDS011;47998;53.242;6.386;2022-12-17T00:46:29;643.60;;;84.07;;
51578;SDS011;47998;53.242;6.386;2022-12-17T00:49:13;439.63;;;69.73;;
51578;SDS011;47998;53.242;6.386;2022-12-17T00:51:58;590.43;;;84.57;;
51578;SDS011;47998;53.242;6.386;2022-12-17T00:54:43;659.83;;;104.87;;
51578;SDS011;47998;53.242;6.386;2022-12-17T00:57:27;443.27;;;76.00;;
51578;SDS011;47998;53.242;6.386;2022-12-17T01:00:11;479.10;;;81.87;;
51578;SDS011;47998;53.242;6.386;2022-12-17T01:03:08;408.97;;;72.40;;
51578;SDS011;47998;53.242;6.386;2022-12-17T01:05:54;366.13;;;60.27;;
51578;SDS011;47998;53.242;6.386;2022-12-17T01:08:39;459.00;;;71.57;;
51578;SDS011;47998;53.242;6.386;2022-12-17T01:11:23;503.93;;;76.13;;
51578;SDS011;47998;53.242;6.386;2022-12-17T01:14:07;549.57;;;76.63;;
51578;SDS011;47998;53.242;6.386;2022-12-17T01:16:52;481.30;;;76.63;;
51578;SDS011;47998;53.242;6.386;2022-12-17T01:19:36;537.83;;;84.13;;
51578;SDS011;47998;53.242;6.386;2022-12-17T01:22:20;426.97;;;79.53;;
51578;SDS011;47998;53.242;6.386;2022-12-17T01:25:05;349.33;;;66.97;;
51578;SDS011;47998;53.242;6.386;2022-12-17T01:27:49;364.93;;;68.57;;
51578;SDS011;47998;53.242;6.386;2022-12-17T01:30:35;320.23;;;66.37;;
51578;SDS011;47998;53.242;6.386;2022-12-17T01:33:20;240.83;;;56.10;;
51578;SDS011;47998;53.242;6.386;2022-12-17T01:36:05;270.97;;;61.93;;
51578;SDS011;47998;53.242;6.386;2022-12-17T01:38:49;253.83;;;54.23;;
51578;SDS011;47998;53.242;6.386;2022-12-17T01:41:33;250.60;;;54.87;;
51578;SDS011;47998;53.242;6.386;2022-12-17T01:47:31;296.57;;;65.53;;
51578;SDS011;47998;53.242;6.386;2022-12-17T01:50:24;282.57;;;60.93;;
51578;SDS011;47998;53.242;6.386;2022-12-17T01:53:11;322.97;;;67.50;;
51578;SDS011;47998;53.242;6.386;2022-12-17T01:55:57;214.13;;;51.17;;
51578;SDS011;47998;53.242;6.386;2022-12-17T01:58:42;251.30;;;57.57;;
51578;SDS011;47998;53.242;6.386;2022-12-17T02:01:26;250.90;;;59.83;;
51578;SDS011;47998;53.242;6.386;2022-12-17T02:04:10;206.73;;;53.20;;
51578;SDS011;47998;53.242;6.386;2022-12-17T02:07:02;230.23;;;57.57;;
51578;SDS011;47998;53.242;6.386;2022-12-17T02:10:16;222.97;;;51.90;;
51578;SDS011;47998;53.242;6.386;2022-12-17T02:13:18;222.73;;;55.53;;
51578;SDS011;47998;53.242;6.386;2022-12-17T02:16:14;179.80;;;45.47;;
51578;SDS011;47998;53.242;6.386;2022-12-17T02:22:02;206.23;;;52.40;;
51578;SDS011;47998;53.242;6.386;2022-12-17T02:24:57;243.57;;;58.17;;
51578;SDS011;47998;53.242;6.386;2022-12-17T02:27:48;232.20;;;56.87;;
51578;SDS011;47998;53.242;6.386;2022-12-17T02:30:33;231.17;;;59.73;;
51578;SDS011;47998;53.242;6.386;2022-12-17T02:33:18;214.07;;;52.67;;
51578;SDS011;47998;53.242;6.386;2022-12-17T02:36:03;208.83;;;57.47;;
51578;SDS011;47998;53.242;6.386;2022-12-17T02:38:49;204.60;;;51.97;;
51578;SDS011;47998;53.242;6.386;2022-12-17T02:41:40;180.93;;;48.60;;
51578;SDS011;47998;53.242;6.386;2022-12-17T02:44:29;197.77;;;53.70;;
51578;SDS011;47998;53.242;6.386;2022-12-17T02:47:15;159.57;;;46.80;;
51578;SDS011;47998;53.242;6.386;2022-12-17T02:50:01;125.73;;;40.07;;
51578;SDS011;47998;53.242;6.386;2022-12-17T02:52:46;148.00;;;44.73;;
51578;SDS011;47998;53.242;6.386;2022-12-17T02:55:31;149.17;;;44.43;;
51578;SDS011;47998;53.242;6.386;2022-12-17T02:58:16;129.10;;;38.53;;
51578;SDS011;47998;53.242;6.386;2022-12-17T03:01:00;137.53;;;44.80;;
51578;SDS011;47998;53.242;6.386;2022-12-17T03:03:44;167.30;;;53.20;;
51578;SDS011;47998;53.242;6.386;2022-12-17T03:06:28;132.23;;;43.63;;
51578;SDS011;47998;53.242;6.386;2022-12-17T03:09:13;162.10;;;49.27;;
51578;SDS011;47998;53.242;6.386;2022-12-17T03:11:57;184.23;;;52.73;;
51578;SDS011;47998;53.242;6.386;2022-12-17T03:14:42;162.93;;;47.67;;
51578;SDS011;47998;53.242;6.386;2022-12-17T03:17:27;123.30;;;40.67;;
51578;SDS011;47998;53.242;6.386;2022-12-17T03:20:12;129.80;;;41.50;;
51578;SDS011;47998;53.242;6.386;2022-12-17T03:23:06;108.83;;;38.80;;
51578;SDS011;47998;53.242;6.386;2022-12-17T03:25:53;109.77;;;40.17;;
51578;SDS011;47998;53.242;6.386;2022-12-17T03:28:40;161.80;;;52.30;;
51578;SDS011;47998;53.242;6.386;2022-12-17T03:31:24;117.07;;;40.83;;
51578;SDS011;47998;53.242;6.386;2022-12-17T03:34:08;137.83;;;45.00;;
51578;SDS011;47998;53.242;6.386;2022-12-17T03:36:52;121.53;;;36.80;;
51578;SDS011;47998;53.242;6.386;2022-12-17T03:39:37;135.90;;;42.37;;
51578;SDS011;47998;53.242;6.386;2022-12-17T03:42:21;137.70;;;46.00;;
51578;SDS011;47998;53.242;6.386;2022-12-17T03:45:05;119.03;;;42.97;;
51578;SDS011;47998;53.242;6.386;2022-12-17T03:47:49;127.33;;;46.60;;
51578;SDS011;47998;53.242;6.386;2022-12-17T03:50:34;148.97;;;47.97;;
51578;SDS011;47998;53.242;6.386;2022-12-17T03:53:18;152.80;;;49.00;;
51578;SDS011;47998;53.242;6.386;2022-12-17T03:56:02;91.83;;;34.53;;
51578;SDS011;47998;53.242;6.386;2022-12-17T03:58:46;89.53;;;31.83;;
51578;SDS011;47998;53.242;6.386;2022-12-17T04:01:30;121.93;;;40.70;;
51578;SDS011;47998;53.242;6.386;2022-12-17T04:04:15;137.90;;;47.40;;
51578;SDS011;47998;53.242;6.386;2022-12-17T04:06:59;124.77;;;43.43;;
51578;SDS011;47998;53.242;6.386;2022-12-17T04:09:43;99.07;;;36.23;;
51578;SDS011;47998;53.242;6.386;2022-12-17T04:12:28;134.57;;;46.17;;
51578;SDS011;47998;53.242;6.386;2022-12-17T04:15:12;146.80;;;48.30;;
51578;SDS011;47998;53.242;6.386;2022-12-17T04:17:56;151.47;;;48.00;;
51578;SDS011;47998;53.242;6.386;2022-12-17T04:20:41;167.07;;;51.73;;
51578;SDS011;47998;53.242;6.386;2022-12-17T04:23:25;187.27;;;57.60;;
51578;SDS011;47998;53.242;6.386;2022-12-17T04:26:09;144.43;;;50.47;;
51578;SDS011;47998;53.242;6.386;2022-12-17T04:28:54;132.03;;;49.97;;
51578;SDS011;47998;53.242;6.386;2022-12-17T04:31:38;97.87;;;36.23;;
51578;SDS011;47998;53.242;6.386;2022-12-17T04:34:22;122.17;;;39.63;;
51578;SDS011;47998;53.242;6.386;2022-12-17T04:37:07;148.97;;;48.23;;
51578;SDS011;47998;53.242;6.386;2022-12-17T04:39:51;108.57;;;40.27;;
51578;SDS011;47998;53.242;6.386;2022-12-17T04:42:35;142.43;;;45.93;;
51578;SDS011;47998;53.242;6.386;2022-12-17T04:45:19;107.40;;;37.57;;
51578;SDS011;47998;53.242;6.386;2022-12-17T04:48:04;129.43;;;43.37;;
51578;SDS011;47998;53.242;6.386;2022-12-17T04:50:49;121.30;;;41.67;;
51578;SDS011;47998;53.242;6.386;2022-12-17T04:53:34;104.13;;;39.73;;
51578;SDS011;47998;53.242;6.386;2022-12-17T04:56:18;122.87;;;43.83;;
51578;SDS011;47998;53.242;6.386;2022-12-17T04:59:03;91.47;;;35.50;;
51578;SDS011;47998;53.242;6.386;2022-12-17T05:01:47;100.33;;;40.57;;
51578;SDS011;47998;53.242;6.386;2022-12-17T05:04:31;129.23;;;46.30;;
51578;SDS011;47998;53.242;6.386;2022-12-17T05:07:16;109.00;;;40.67;;
51578;SDS011;47998;53.242;6.386;2022-12-17T05:10:00;106.47;;;41.33;;
51578;SDS011;47998;53.242;6.386;2022-12-17T05:12:44;80.43;;;34.43;;
51578;SDS011;47998;53.242;6.386;2022-12-17T05:15:28;103.73;;;39.27;;
51578;SDS011;47998;53.242;6.386;2022-12-17T05:18:13;117.60;;;41.80;;
51578;SDS011;47998;53.242;6.386;2022-12-17T05:20:57;112.43;;;42.80;;
51578;SDS011;47998;53.242;6.386;2022-12-17T05:23:42;144.00;;;49.13;;
51578;SDS011;47998;53.242;6.386;2022-12-17T05:26:26;159.03;;;52.00;;
51578;SDS011;47998;53.242;6.386;2022-12-17T05:29:11;98.70;;;38.17;;
51578;SDS011;47998;53.242;6.386;2022-12-17T05:31:56;128.33;;;48.03;;
51578;SDS011;47998;53.242;6.386;2022-12-17T05:34:40;150.33;;;49.13;;
51578;SDS011;47998;53.242;6.386;2022-12-17T05:37:24;155.47;;;52.13;;
51578;SDS011;47998;53.242;6.386;2022-12-17T05:40:09;142.83;;;46.97;;
51578;SDS011;47998;53.242;6.386;2022-12-17T05:42:57;136.70;;;48.43;;
51578;SDS011;47998;53.242;6.386;2022-12-17T05:45:43;142.63;;;52.73;;
51578;SDS011;47998;53.242;6.386;2022-12-17T05:48:28;112.70;;;43.60;;
51578;SDS011;47998;53.242;6.386;2022-12-17T05:51:13;103.80;;;43.87;;
51578;SDS011;47998;53.242;6.386;2022-12-17T05:53:58;106.23;;;42.63;;
51578;SDS011;47998;53.242;6.386;2022-12-17T05:56:42;117.67;;;45.47;;
51578;SDS011;47998;53.242;6.386;2022-12-17T05:59:26;122.07;;;45.40;;
51578;SDS011;47998;53.242;6.386;2022-12-17T06:02:11;122.87;;;46.53;;
51578;SDS011;47998;53.242;6.386;2022-12-17T06:04:55;106.33;;;38.23;;
51578;SDS011;47998;53.242;6.386;2022-12-17T06:07:39;112.67;;;42.33;;
51578;SDS011;47998;53.242;6.386;2022-12-17T06:10:24;124.17;;;44.07;;
51578;SDS011;47998;53.242;6.386;2022-12-17T06:13:09;99.13;;;38.30;;
51578;SDS011;47998;53.242;6.386;2022-12-17T06:15:53;103.67;;;41.40;;
51578;SDS011;47998;53.242;6.386;2022-12-17T06:18:37;74.33;;;31.57;;
51578;SDS011;47998;53.242;6.386;2022-12-17T06:21:22;130.07;;;45.27;;
51578;SDS011;47998;53.242;6.386;2022-12-17T06:24:06;114.20;;;40.30;;
51578;SDS011;47998;53.242;6.386;2022-12-17T06:26:51;84.37;;;33.17;;
51578;SDS011;47998;53.242;6.386;2022-12-17T06:29:35;101.50;;;38.73;;
51578;SDS011;47998;53.242;6.386;2022-12-17T06:32:19;100.93;;;40.53;;
51578;SDS011;47998;53.242;6.386;2022-12-17T06:35:04;111.03;;;44.53;;
51578;SDS011;47998;53.242;6.386;2022-12-17T06:37:56;119.83;;;43.23;;
51578;SDS011;47998;53.242;6.386;2022-12-17T06:40:42;80.78;;;32.75;;
51578;SDS011;47998;53.242;6.386;2022-12-17T06:43:26;104.80;;;36.73;;
51578;SDS011;47998;53.242;6.386;2022-12-17T06:46:12;117.47;;;42.90;;
51578;SDS011;47998;53.242;6.386;2022-12-17T06:48:56;91.03;;;37.60;;
51578;SDS011;47998;53.242;6.386;2022-12-17T06:51:41;92.40;;;38.03;;
51578;SDS011;47998;53.242;6.386;2022-12-17T06:54:25;112.60;;;47.50;;
51578;SDS011;47998;53.242;6.386;2022-12-17T06:57:10;107.43;;;42.70;;
51578;SDS011;47998;53.242;6.386;2022-12-17T06:59:54;105.27;;;41.60;;
51578;SDS011;47998;53.242;6.386;2022-12-17T07:02:38;97.10;;;40.77;;
51578;SDS011;47998;53.242;6.386;2022-12-17T07:05:22;90.70;;;38.27;;
51578;SDS011;47998;53.242;6.386;2022-12-17T07:08:07;101.70;;;40.77;;
51578;SDS011;47998;53.242;6.386;2022-12-17T07:10:51;106.53;;;41.33;;
51578;SDS011;47998;53.242;6.386;2022-12-17T07:13:36;110.13;;;46.20;;
51578;SDS011;47998;53.242;6.386;2022-12-17T07:16:20;94.13;;;38.63;;
51578;SDS011;47998;53.242;6.386;2022-12-17T07:19:04;116.43;;;45.10;;
51578;SDS011;47998;53.242;6.386;2022-12-17T07:21:49;86.07;;;37.43;;
51578;SDS011;47998;53.242;6.386;2022-12-17T07:24:33;116.60;;;46.67;;
51578;SDS011;47998;53.242;6.386;2022-12-17T07:27:17;88.03;;;38.60;;
51578;SDS011;47998;53.242;6.386;2022-12-17T07:30:01;105.80;;;47.03;;
51578;SDS011;47998;53.242;6.386;2022-12-17T07:32:46;108.03;;;46.00;;
51578;SDS011;47998;53.242;6.386;2022-12-17T07:35:30;99.80;;;43.17;;
51578;SDS011;47998;53.242;6.386;2022-12-17T07:38:14;105.97;;;44.10;;
51578;SDS011;47998;53.242;6.386;2022-12-17T07:40:59;97.67;;;41.73;;
51578;SDS011;47998;53.242;6.386;2022-12-17T07:43:44;106.73;;;48.63;;
51578;SDS011;47998;53.242;6.386;2022-12-17T07:46:28;103.60;;;42.60;;
51578;SDS011;47998;53.242;6.386;2022-12-17T07:49:12;109.97;;;45.03;;
51578;SDS011;47998;53.242;6.386;2022-12-17T07:51:56;109.30;;;45.67;;
51578;SDS011;47998;53.242;6.386;2022-12-17T07:54:41;124.43;;;47.17;;
51578;SDS011;47998;53.242;6.386;2022-12-17T07:57:25;108.33;;;43.57;;
51578;SDS011;47998;53.242;6.386;2022-12-17T08:00:09;113.07;;;47.37;;
51578;SDS011;47998;53.242;6.386;2022-12-17T08:02:55;119.63;;;45.87;;
51578;SDS011;47998;53.242;6.386;2022-12-17T08:05:42;112.53;;;43.40;;
51578;SDS011;47998;53.242;6.386;2022-12-17T08:08:27;115.70;;;47.30;;
51578;SDS011;47998;53.242;6.386;2022-12-17T08:11:11;91.33;;;39.90;;
51578;SDS011;47998;53.242;6.386;2022-12-17T08:13:56;104.77;;;42.00;;
51578;SDS011;47998;53.242;6.386;2022-12-17T08:16:40;108.10;;;42.97;;
51578;SDS011;47998;53.242;6.386;2022-12-17T08:19:24;120.87;;;49.17;;
51578;SDS011;47998;53.242;6.386;2022-12-17T08:22:09;111.50;;;43.40;;
51578;SDS011;47998;53.242;6.386;2022-12-17T08:24:53;115.27;;;43.57;;
51578;SDS011;47998;53.242;6.386;2022-12-17T08:27:37;109.73;;;43.23;;
51578;SDS011;47998;53.242;6.386;2022-12-17T08:30:22;107.87;;;43.57;;
51578;SDS011;47998;53.242;6.386;2022-12-17T08:33:06;104.90;;;42.57;;
51578;SDS011;47998;53.242;6.386;2022-12-17T08:35:51;119.40;;;44.53;;
51578;SDS011;47998;53.242;6.386;2022-12-17T08:38:36;115.67;;;45.87;;
51578;SDS011;47998;53.242;6.386;2022-12-17T08:41:21;117.87;;;47.07;;
51578;SDS011;47998;53.242;6.386;2022-12-17T08:44:05;110.07;;;43.23;;
51578;SDS011;47998;53.242;6.386;2022-12-17T08:46:50;121.13;;;48.37;;
51578;SDS011;47998;53.242;6.386;2022-12-17T08:49:34;123.87;;;46.70;;
51578;SDS011;47998;53.242;6.386;2022-12-17T08:52:18;119.10;;;42.97;;
51578;SDS011;47998;53.242;6.386;2022-12-17T08:55:19;122.03;;;46.63;;
51578;SDS011;47998;53.242;6.386;2022-12-17T08:58:03;119.50;;;44.87;;
51578;SDS011;47998;53.242;6.386;2022-12-17T09:00:48;126.60;;;46.73;;
51578;SDS011;47998;53.242;6.386;2022-12-17T09:03:32;128.83;;;46.50;;
51578;SDS011;47998;53.242;6.386;2022-12-17T09:06:17;115.33;;;44.47;;
51578;SDS011;47998;53.242;6.386;2022-12-17T09:09:01;124.60;;;45.70;;
51578;SDS011;47998;53.242;6.386;2022-12-17T09:11:45;124.60;;;51.13;;
51578;SDS011;47998;53.242;6.386;2022-12-17T09:14:29;141.33;;;54.97;;
51578;SDS011;47998;53.242;6.386;2022-12-17T09:17:14;120.13;;;50.37;;
51578;SDS011;47998;53.242;6.386;2022-12-17T09:19:58;141.53;;;56.83;;
51578;SDS011;47998;53.242;6.386;2022-12-17T09:22:42;172.13;;;103.97;;
51578;SDS011;47998;53.242;6.386;2022-12-17T09:25:27;125.33;;;44.93;;
51578;SDS011;47998;53.242;6.386;2022-12-17T09:28:11;134.33;;;43.63;;
51578;SDS011;47998;53.242;6.386;2022-12-17T09:30:58;132.93;;;47.40;;
51578;SDS011;47998;53.242;6.386;2022-12-17T09:33:43;128.30;;;41.93;;
51578;SDS011;47998;53.242;6.386;2022-12-17T09:36:29;133.30;;;43.50;;
51578;SDS011;47998;53.242;6.386;2022-12-17T09:39:14;130.23;;;42.83;;
51578;SDS011;47998;53.242;6.386;2022-12-17T09:42:01;132.30;;;43.83;;
51578;SDS011;47998;53.242;6.386;2022-12-17T09:48:27;111.73;;;41.87;;
51578;SDS011;47998;53.242;6.386;2022-12-17T09:51:46;122.43;;;43.03;;
51578;SDS011;47998;53.242;6.386;2022-12-17T09:54:35;130.50;;;45.80;;
51578;SDS011;47998;53.242;6.386;2022-12-17T09:57:24;126.00;;;46.22;;
51578;SDS011;47998;53.242;6.386;2022-12-17T10:00:15;128.17;;;46.37;;
51578;SDS011;47998;53.242;6.386;2022-12-17T10:03:15;135.77;;;45.80;;
51578;SDS011;47998;53.242;6.386;2022-12-17T10:06:04;125.67;;;43.20;;
51578;SDS011;47998;53.242;6.386;2022-12-17T10:08:54;125.03;;;44.40;;
51578;SDS011;47998;53.242;6.386;2022-12-17T10:11:41;112.83;;;41.63;;
51578;SDS011;47998;53.242;6.386;2022-12-17T10:14:26;125.77;;;45.17;;
51578;SDS011;47998;53.242;6.386;2022-12-17T10:17:14;110.70;;;43.73;;
51578;SDS011;47998;53.242;6.386;2022-12-17T10:20:04;98.72;;;40.00;;
51578;SDS011;47998;53.242;6.386;2022-12-17T10:23:01;115.17;;;39.77;;
51578;SDS011;47998;53.242;6.386;2022-12-17T10:25:49;106.47;;;41.13;;
51578;SDS011;47998;53.242;6.386;2022-12-17T10:28:59;115.70;;;41.97;;
51578;SDS011;47998;53.242;6.386;2022-12-17T10:31:54;125.97;;;45.03;;
51578;SDS011;47998;53.242;6.386;2022-12-17T10:34:43;119.00;;;42.67;;
51578;SDS011;47998;53.242;6.386;2022-12-17T10:37:29;110.83;;;41.13;;
51578;SDS011;47998;53.242;6.386;2022-12-17T10:40:24;119.33;;;45.13;;
51578;SDS011;47998;53.242;6.386;2022-12-17T10:43:26;108.40;;;42.22;;
51578;SDS011;47998;53.242;6.386;2022-12-17T10:49:26;109.03;;;40.47;;
51578;SDS011;47998;53.242;6.386;2022-12-17T10:55:24;107.10;;;42.75;;
51578;SDS011;47998;53.242;6.386;2022-12-17T10:58:24;92.77;;;38.60;;
51578;SDS011;47998;53.242;6.386;2022-12-17T11:01:11;102.63;;;39.80;;
51578;SDS011;47998;53.242;6.386;2022-12-17T11:07:25;100.13;;;40.37;;
51578;SDS011;47998;53.242;6.386;2022-12-17T11:10:19;106.23;;;40.40;;
51578;SDS011;47998;53.242;6.386;2022-12-17T11:13:12;104.80;;;42.47;;
51578;SDS011;47998;53.242;6.386;2022-12-17T11:16:07;105.63;;;44.40;;
51578;SDS011;47998;53.242;6.386;2022-12-17T11:21:56;86.70;;;40.93;;
51578;SDS011;47998;53.242;6.386;2022-12-17T11:25:00;86.67;;;39.63;;
51578;SDS011;47998;53.242;6.386;2022-12-17T11:27:49;88.00;;;39.63;;
51578;SDS011;47998;53.242;6.386;2022-12-17T11:30:48;91.13;;;40.60;;
51578;SDS011;47998;53.242;6.386;2022-12-17T11:33:47;99.57;;;41.60;;
51578;SDS011;47998;53.242;6.386;2022-12-17T11:36:41;97.63;;;46.27;;
51578;SDS011;47998;53.242;6.386;2022-12-17T11:46:07;81.83;;;38.83;;
51578;SDS011;47998;53.242;6.386;2022-12-17T11:49:10;76.63;;;35.10;;
51578;SDS011;47998;53.242;6.386;2022-12-17T11:52:14;76.17;;;38.33;;
51578;SDS011;47998;53.242;6.386;2022-12-17T11:56:08;86.63;;;42.03;;
51578;SDS011;47998;53.242;6.386;2022-12-17T11:59:30;85.03;;;38.53;;
51578;SDS011;47998;53.242;6.386;2022-12-17T12:08:07;79.80;;;36.10;;
51578;SDS011;47998;53.242;6.386;2022-12-17T12:11:05;69.70;;;34.97;;
51578;SDS011;47998;53.242;6.386;2022-12-17T12:14:11;75.40;;;35.53;;
51578;SDS011;47998;53.242;6.386;2022-12-17T12:17:14;84.03;;;41.23;;
51578;SDS011;47998;53.242;6.386;2022-12-17T12:26:20;71.60;;;35.43;;
51578;SDS011;47998;53.242;6.386;2022-12-17T12:34:42;79.53;;;37.25;;
51578;SDS011;47998;53.242;6.386;2022-12-17T12:37:28;73.13;;;37.13;;
51578;SDS011;47998;53.242;6.386;2022-12-17T12:40:16;67.00;;;35.42;;
51578;SDS011;47998;53.242;6.386;2022-12-17T12:43:21;58.97;;;30.40;;
51578;SDS011;47998;53.242;6.386;2022-12-17T12:46:16;71.55;;;36.20;;
51578;SDS011;47998;53.242;6.386;2022-12-17T12:49:12;63.17;;;33.28;;
51578;SDS011;47998;53.242;6.386;2022-12-17T12:52:21;67.43;;;35.42;;
51578;SDS011;47998;53.242;6.386;2022-12-17T12:55:08;61.55;;;32.17;;
51578;SDS011;47998;53.242;6.386;2022-12-17T12:57:56;66.15;;;33.58;;
51578;SDS011;47998;53.242;6.386;2022-12-17T13:11:49;63.92;;;33.60;;
51578;SDS011;47998;53.242;6.386;2022-12-17T13:14:30;64.53;;;34.95;;
51578;SDS011;47998;53.242;6.386;2022-12-17T13:19:35;66.20;;;35.78;;
51578;SDS011;47998;53.242;6.386;2022-12-17T13:24:44;60.35;;;33.65;;
51578;SDS011;47998;53.242;6.386;2022-12-17T13:41:19;61.80;;;34.55;;
51578;SDS011;47998;53.242;6.386;2022-12-17T13:43:54;63.10;;;34.65;;
51578;SDS011;47998;53.242;6.386;2022-12-17T13:46:26;65.35;;;35.60;;
51578;SDS011;47998;53.242;6.386;2022-12-17T13:48:56;64.57;;;34.47;;
51578;SDS011;47998;53.242;6.386;2022-12-17T13:51:28;62.80;;;33.58;;
51578;SDS011;47998;53.242;6.386;2022-12-17T13:53:57;66.10;;;36.05;;
51578;SDS011;47998;53.242;6.386;2022-12-17T13:56:26;65.07;;;35.25;;
51578;SDS011;47998;53.242;6.386;2022-12-17T13:58:54;65.53;;;36.17;;
51578;SDS011;47998;53.242;6.386;2022-12-17T14:01:21;58.78;;;32.80;;
51578;SDS011;47998;53.242;6.386;2022-12-17T14:03:51;66.68;;;36.03;;
51578;SDS011;47998;53.242;6.386;2022-12-17T14:06:18;71.07;;;37.65;;
51578;SDS011;47998;53.242;6.386;2022-12-17T14:08:46;66.55;;;35.63;;
51578;SDS011;47998;53.242;6.386;2022-12-17T14:11:14;66.82;;;36.08;;
51578;SDS011;47998;53.242;6.386;2022-12-17T14:13:59;70.47;;;36.03;;
51578;SDS011;47998;53.242;6.386;2022-12-17T14:16:26;70.38;;;38.13;;
51578;SDS011;47998;53.242;6.386;2022-12-17T14:18:55;68.93;;;36.97;;
51578;SDS011;47998;53.242;6.386;2022-12-17T14:21:22;71.85;;;38.28;;
51578;SDS011;47998;53.242;6.386;2022-12-17T14:23:50;69.22;;;37.47;;
51578;SDS011;47998;53.242;6.386;2022-12-17T14:26:16;70.25;;;37.45;;
51578;SDS011;47998;53.242;6.386;2022-12-17T14:28:50;76.45;;;37.95;;
51578;SDS011;47998;53.242;6.386;2022-12-17T14:31:25;71.00;;;37.83;;
51578;SDS011;47998;53.242;6.386;2022-12-17T14:36:31;117.87;;;59.63;;
51578;SDS011;47998;53.242;6.386;2022-12-17T14:39:00;86.00;;;43.73;;
51578;SDS011;47998;53.242;6.386;2022-12-17T14:41:36;96.55;;;48.25;;
51578;SDS011;47998;53.242;6.386;2022-12-17T14:44:25;79.27;;;40.53;;
51578;SDS011;47998;53.242;6.386;2022-12-17T14:47:07;92.03;;;42.93;;
51578;SDS011;47998;53.242;6.386;2022-12-17T14:50:22;92.43;;;42.27;;
51578;SDS011;47998;53.242;6.386;2022-12-17T14:58:24;102.30;;;42.10;;
51578;SDS011;47998;53.242;6.386;2022-12-17T15:03:42;94.47;;;40.30;;
51578;SDS011;47998;53.242;6.386;2022-12-17T15:06:10;89.10;;;40.00;;
51578;SDS011;47998;53.242;6.386;2022-12-17T15:08:43;99.77;;;41.87;;
51578;SDS011;47998;53.242;6.386;2022-12-17T15:11:11;112.27;;;43.30;;
51578;SDS011;47998;53.242;6.386;2022-12-17T15:13:39;99.93;;;42.27;;
51578;SDS011;47998;53.242;6.386;2022-12-17T15:16:05;102.83;;;42.87;;
51578;SDS011;47998;53.242;6.386;2022-12-17T15:18:31;109.93;;;47.60;;
51578;SDS011;47998;53.242;6.386;2022-12-17T15:20:57;108.33;;;43.53;;
51578;SDS011;47998;53.242;6.386;2022-12-17T15:23:23;109.00;;;45.07;;
51578;SDS011;47998;53.242;6.386;2022-12-17T15:25:49;114.83;;;46.17;;
51578;SDS011;47998;53.242;6.386;2022-12-17T15:28:16;111.80;;;45.73;;
51578;SDS011;47998;53.242;6.386;2022-12-17T15:30:43;111.37;;;44.37;;
51578;SDS011;47998;53.242;6.386;2022-12-17T15:33:10;113.37;;;48.10;;
51578;SDS011;47998;53.242;6.386;2022-12-17T15:35:37;120.90;;;55.97;;
51578;SDS011;47998;53.242;6.386;2022-12-17T15:38:04;104.23;;;46.23;;
51578;SDS011;47998;53.242;6.386;2022-12-17T15:40:30;116.93;;;46.30;;
51578;SDS011;47998;53.242;6.386;2022-12-17T15:42:57;117.83;;;45.17;;
51578;SDS011;47998;53.242;6.386;2022-12-17T15:45:38;106.60;;;43.03;;
51578;SDS011;47998;53.242;6.386;2022-12-17T15:48:18;125.60;;;44.57;;
51578;SDS011;47998;53.242;6.386;2022-12-17T15:50:45;118.63;;;42.47;;
51578;SDS011;47998;53.242;6.386;2022-12-17T15:53:12;113.63;;;43.20;;
51578;SDS011;47998;53.242;6.386;2022-12-17T15:55:38;123.10;;;43.97;;
51578;SDS011;47998;53.242;6.386;2022-12-17T15:58:05;112.23;;;42.87;;
51578;SDS011;47998;53.242;6.386;2022-12-17T16:00:32;127.80;;;44.87;;
51578;SDS011;47998;53.242;6.386;2022-12-17T16:02:58;126.73;;;44.07;;
51578;SDS011;47998;53.242;6.386;2022-12-17T16:05:24;120.43;;;43.57;;
51578;SDS011;47998;53.242;6.386;2022-12-17T16:07:49;132.73;;;43.80;;
51578;SDS011;47998;53.242;6.386;2022-12-17T16:10:15;128.07;;;44.20;;
51578;SDS011;47998;53.242;6.386;2022-12-17T16:12:41;141.70;;;44.23;;
51578;SDS011;47998;53.242;6.386;2022-12-17T16:15:07;131.47;;;44.23;;
51578;SDS011;47998;53.242;6.386;2022-12-17T16:17:34;134.03;;;44.77;;
51578;SDS011;47998;53.242;6.386;2022-12-17T16:20:00;149.20;;;44.90;;
51578;SDS011;47998;53.242;6.386;2022-12-17T16:22:26;140.30;;;44.90;;
51578;SDS011;47998;53.242;6.386;2022-12-17T16:24:52;145.13;;;45.47;;
51578;SDS011;47998;53.242;6.386;2022-12-17T16:27:18;139.37;;;47.23;;
51578;SDS011;47998;53.242;6.386;2022-12-17T16:29:44;146.60;;;46.50;;
51578;SDS011;47998;53.242;6.386;2022-12-17T16:32:12;156.23;;;48.83;;
51578;SDS011;47998;53.242;6.386;2022-12-17T16:34:40;149.60;;;50.50;;
51578;SDS011;47998;53.242;6.386;2022-12-17T16:37:05;143.70;;;45.63;;
51578;SDS011;47998;53.242;6.386;2022-12-17T16:39:31;132.33;;;44.87;;
51578;SDS011;47998;53.242;6.386;2022-12-17T16:41:57;136.43;;;42.50;;
51578;SDS011;47998;53.242;6.386;2022-12-17T16:44:23;138.53;;;42.53;;
51578;SDS011;47998;53.242;6.386;2022-12-17T16:46:49;141.20;;;45.50;;
51578;SDS011;47998;53.242;6.386;2022-12-17T16:49:20;145.03;;;47.43;;
51578;SDS011;47998;53.242;6.386;2022-12-17T16:51:48;140.03;;;44.23;;
51578;SDS011;47998;53.242;6.386;2022-12-17T16:54:15;150.87;;;44.60;;
51578;SDS011;47998;53.242;6.386;2022-12-17T16:56:46;130.00;;;42.53;;
51578;SDS011;47998;53.242;6.386;2022-12-17T16:59:13;139.20;;;43.70;;
51578;SDS011;47998;53.242;6.386;2022-12-17T17:01:40;151.63;;;46.33;;
51578;SDS011;47998;53.242;6.386;2022-12-17T17:04:09;151.93;;;47.87;;
51578;SDS011;47998;53.242;6.386;2022-12-17T17:06:39;158.60;;;46.43;;
51578;SDS011;47998;53.242;6.386;2022-12-17T17:09:06;139.70;;;43.73;;
51578;SDS011;47998;53.242;6.386;2022-12-17T17:11:32;152.23;;;45.60;;
51578;SDS011;47998;53.242;6.386;2022-12-17T17:13:58;144.20;;;43.00;;